Time;durP1;ratioP1;P1;durP2;ratioP2;P2;SDS_P1;SDS_P2;PMS_P1;PMS_P2;Temp;Humidity;BMP_temperature;BMP_pressure;BME280_temperature;BME280_humidity;BME280_pressure;Samples;Min_cycle;Max_cycle;Signal;HPM_P1;HPM_P2
2022/04/15 00:02:06;;;;;;;31.58;21.48;;;;;;;;;;5034334;28;20049;-60
2022/04/15 00:04:34;;;;;;;24.60;18.40;;;;;;;;;;5034497;28;20042;-60
2022/04/15 00:07:01;;;;;;;26.48;20.20;;;;;;;;;;5023521;28;20306;-60
2022/04/15 00:09:28;;;;;;;30.20;20.60;;;;;;;;;;5014064;28;20058;-61
2022/04/15 00:11:57;;;;;;;29.38;20.70;;;;;;;;;;5014293;28;20484;-61
2022/04/15 00:14:24;;;;;;;28.02;21.05;;;;;;;;;;5014343;28;20049;-60
2022/04/15 00:16:51;;;;;;;26.27;19.40;;;;;;;;;;5014323;28;20052;-61
2022/04/15 00:19:18;;;;;;;26.48;20.70;;;;;;;;;;5014384;28;20129;-61
2022/04/15 00:21:46;;;;;;;29.42;20.52;;;;;;;;;;5014007;28;20053;-60
2022/04/15 00:24:13;;;;;;;26.33;19.60;;;;;;;;;;5014052;28;20053;-62
2022/04/15 00:26:40;;;;;;;25.92;20.05;;;;;;;;;;5013464;28;20046;-61
2022/04/15 00:29:08;;;;;;;26.85;20.25;;;;;;;;;;5013549;28;20073;-59
2022/04/15 00:31:36;;;;;;;24.67;19.85;;;;;;;;;;5013842;28;20053;-60
2022/04/15 00:34:03;;;;;;;25.77;20.33;;;;;;;;;;5013940;28;20589;-61
2022/04/15 00:36:31;;;;;;;23.45;19.92;;;;;;;;;;5013557;28;20057;-61
2022/04/15 00:38:58;;;;;;;24.55;20.65;;;;;;;;;;5013742;28;20053;-61
2022/04/15 00:41:25;;;;;;;27.80;20.95;;;;;;;;;;5018997;28;20085;-61
2022/04/15 00:43:55;;;;;;;25.60;20.42;;;;;;;;;;5033534;28;20373;-61
2022/04/15 00:46:23;;;;;;;23.75;18.70;;;;;;;;;;5018684;28;20050;-61
2022/04/15 00:48:51;;;;;;;27.92;20.30;;;;;;;;;;5013222;28;20050;-61
2022/04/15 00:51:18;;;;;;;23.13;19.25;;;;;;;;;;5013532;28;20054;-62
2022/04/15 00:53:47;;;;;;;23.73;19.42;;;;;;;;;;5013482;28;20061;-61
2022/04/15 00:56:14;;;;;;;30.10;20.83;;;;;;;;;;5013184;28;20056;-60
2022/04/15 00:58:42;;;;;;;27.92;21.02;;;;;;;;;;5013469;28;20491;-61
2022/04/15 01:01:10;;;;;;;24.40;18.80;;;;;;;;;;5013271;28;20519;-62
2022/04/15 01:03:39;;;;;;;23.70;19.77;;;;;;;;;;5014265;28;20546;-62
2022/04/15 01:06:08;;;;;;;23.90;19.88;;;;;;;;;;5013001;28;20514;-61
2022/04/15 01:08:42;;;;;;;26.85;20.42;;;;;;;;;;5013317;28;20057;-62
2022/04/15 01:11:12;;;;;;;25.23;21.63;;;;;;;;;;5013286;28;20060;-62
2022/04/15 01:13:40;;;;;;;27.02;21.10;;;;;;;;;;5013273;28;20045;-61
2022/04/15 01:16:09;;;;;;;27.63;23.30;;;;;;;;;;5012891;28;20187;-61
2022/04/15 01:18:36;;;;;;;29.00;23.23;;;;;;;;;;5012729;28;20068;-61
2022/04/15 01:21:05;;;;;;;30.48;23.33;;;;;;;;;;5012684;28;20132;-61
2022/04/15 01:23:33;;;;;;;30.77;23.65;;;;;;;;;;5012636;28;20072;-61
2022/04/15 01:26:00;;;;;;;25.70;22.45;;;;;;;;;;5012575;28;20053;-62
2022/04/15 01:28:27;;;;;;;27.17;21.67;;;;;;;;;;5012827;28;20060;-60
2022/04/15 01:30:54;;;;;;;26.70;22.30;;;;;;;;;;5012514;28;20513;-61
2022/04/15 01:33:21;;;;;;;25.88;21.02;;;;;;;;;;5012350;28;20057;-62
2022/04/15 01:35:48;;;;;;;25.13;20.67;;;;;;;;;;5012177;28;20100;-62
2022/04/15 01:38:17;;;;;;;29.98;21.67;;;;;;;;;;5012263;28;20104;-61
2022/04/15 01:40:46;;;;;;;33.47;22.95;;;;;;;;;;5012577;28;20049;-62
2022/04/15 01:43:13;;;;;;;27.75;20.83;;;;;;;;;;5012309;28;20050;-62
2022/04/15 01:45:40;;;;;;;34.60;22.52;;;;;;;;;;5020176;28;20054;-62
2022/04/15 01:48:07;;;;;;;27.83;21.25;;;;;;;;;;5031745;28;20053;-61
2022/04/15 01:50:34;;;;;;;27.23;22.10;;;;;;;;;;5031991;28;20048;-62
2022/04/15 01:53:01;;;;;;;23.83;20.50;;;;;;;;;;5032318;28;20430;-62
2022/04/15 01:55:28;;;;;;;24.83;20.23;;;;;;;;;;5031789;28;20057;-60
2022/04/15 01:57:57;;;;;;;26.58;20.60;;;;;;;;;;5031716;28;20049;-61
2022/04/15 02:00:24;;;;;;;27.77;22.40;;;;;;;;;;5031360;28;20486;-62
2022/04/15 02:02:51;;;;;;;28.73;21.73;;;;;;;;;;5031086;28;20407;-61
2022/04/15 02:05:18;;;;;;;29.27;21.17;;;;;;;;;;5031301;28;20045;-62
2022/04/15 02:07:45;;;;;;;27.27;21.55;;;;;;;;;;5031430;28;20487;-61
2022/04/15 02:10:12;;;;;;;27.95;21.30;;;;;;;;;;5031762;28;20049;-62
2022/04/15 02:12:39;;;;;;;26.13;20.73;;;;;;;;;;5031480;28;20472;-61
2022/04/15 02:15:10;;;;;;;28.83;21.27;;;;;;;;;;5031146;28;20057;-61
2022/04/15 02:17:37;;;;;;;28.00;21.58;;;;;;;;;;5031559;28;20518;-61
2022/04/15 02:20:05;;;;;;;26.08;20.67;;;;;;;;;;5043038;23;20045;-66
2022/04/15 02:22:32;;;;;;;29.00;21.05;;;;;;;;;;5029502;28;20092;-68
2022/04/15 02:25:00;;;;;;;27.00;21.65;;;;;;;;;;5030575;28;20049;-67
2022/04/15 02:27:27;;;;;;;29.98;21.92;;;;;;;;;;5030939;28;20524;-67
2022/04/15 02:29:54;;;;;;;29.70;21.35;;;;;;;;;;5030747;28;20045;-67
2022/04/15 02:32:23;;;;;;;28.50;21.67;;;;;;;;;;5030815;28;20046;-67
2022/04/15 02:34:50;;;;;;;26.95;22.00;;;;;;;;;;5027317;28;20050;-67
2022/04/15 02:37:18;;;;;;;27.25;21.38;;;;;;;;;;5011043;28;20053;-67
2022/04/15 02:39:45;;;;;;;28.58;22.60;;;;;;;;;;5011142;28;20053;-68
2022/04/15 02:42:12;;;;;;;25.85;21.60;;;;;;;;;;5010761;28;20053;-68
2022/04/15 02:44:39;;;;;;;28.23;22.27;;;;;;;;;;5020527;28;20049;-68
2022/04/15 02:47:08;;;;;;;29.25;22.70;;;;;;;;;;5011182;28;20049;-67
2022/04/15 02:49:36;;;;;;;31.63;23.40;;;;;;;;;;5010803;28;20054;-68
2022/04/15 02:52:04;;;;;;;28.85;23.35;;;;;;;;;;5010730;28;20050;-68
2022/04/15 02:54:31;;;;;;;26.90;22.35;;;;;;;;;;5010760;28;20058;-68
2022/04/15 02:56:58;;;;;;;29.27;22.75;;;;;;;;;;5010576;28;20149;-67
2022/04/15 02:59:25;;;;;;;29.20;22.27;;;;;;;;;;5010953;28;20491;-67
2022/04/15 03:01:52;;;;;;;32.22;23.02;;;;;;;;;;5010767;28;20054;-67
2022/04/15 03:04:19;;;;;;;29.17;22.50;;;;;;;;;;5010995;28;20509;-68
2022/04/15 03:06:47;;;;;;;30.92;22.42;;;;;;;;;;5010448;28;20064;-67
2022/04/15 03:09:14;;;;;;;31.58;22.83;;;;;;;;;;5010332;28;20046;-67
2022/04/15 03:11:41;;;;;;;32.38;22.77;;;;;;;;;;5010665;28;20046;-68
2022/04/15 03:14:08;;;;;;;30.30;22.55;;;;;;;;;;5009635;28;20054;-67
2022/04/15 03:16:35;;;;;;;28.65;22.45;;;;;;;;;;5010408;28;20050;-68
2022/04/15 03:19:02;;;;;;;33.67;23.08;;;;;;;;;;5010337;28;20057;-67
2022/04/15 03:21:29;;;;;;;31.90;23.92;;;;;;;;;;5010100;28;20046;-68
2022/04/15 03:23:58;;;;;;;29.67;22.65;;;;;;;;;;5009408;28;20076;-67
2022/04/15 03:26:25;;;;;;;34.03;23.75;;;;;;;;;;5009248;28;20210;-68
2022/04/15 03:28:52;;;;;;;32.13;23.83;;;;;;;;;;5010364;28;20045;-67
2022/04/15 03:31:19;;;;;;;30.25;22.30;;;;;;;;;;5010475;28;20140;-68
2022/04/15 03:33:47;;;;;;;31.65;22.48;;;;;;;;;;5010436;28;20061;-67
2022/04/15 03:36:14;;;;;;;31.67;22.88;;;;;;;;;;5010001;28;20049;-67
2022/04/15 03:38:41;;;;;;;30.60;22.52;;;;;;;;;;5010303;28;20054;-68
2022/04/15 03:41:10;;;;;;;31.13;23.30;;;;;;;;;;5010671;28;20060;-67
2022/04/15 03:43:37;;;;;;;33.03;23.90;;;;;;;;;;5010371;28;20064;-67
2022/04/15 03:46:04;;;;;;;33.25;23.58;;;;;;;;;;5021672;28;20422;-67
2022/04/15 03:48:31;;;;;;;31.00;21.88;;;;;;;;;;5029832;28;20059;-67
2022/04/15 03:50:58;;;;;;;32.33;23.27;;;;;;;;;;5029670;28;20530;-67
2022/04/15 03:53:25;;;;;;;32.97;23.63;;;;;;;;;;5029894;28;20053;-68
2022/04/15 03:55:52;;;;;;;31.38;23.20;;;;;;;;;;5029887;28;20058;-67
2022/04/15 03:58:20;;;;;;;32.30;23.85;;;;;;;;;;5029863;28;20060;-67
2022/04/15 04:00:48;;;;;;;30.15;23.05;;;;;;;;;;5029729;28;20046;-68
2022/04/15 04:03:15;;;;;;;34.13;24.50;;;;;;;;;;5029477;28;20506;-67
2022/04/15 04:05:42;;;;;;;29.45;23.25;;;;;;;;;;5029272;28;20054;-68
2022/04/15 04:08:09;;;;;;;32.53;24.48;;;;;;;;;;5029472;28;20088;-68
2022/04/15 04:10:36;;;;;;;30.70;23.63;;;;;;;;;;5029349;28;20045;-68
2022/04/15 04:13:03;;;;;;;34.55;24.95;;;;;;;;;;5029633;28;20052;-67
2022/04/15 04:15:32;;;;;;;33.55;24.58;;;;;;;;;;5029507;28;20057;-68
2022/04/15 04:17:59;;;;;;;33.85;25.13;;;;;;;;;;5029604;28;20054;-68
2022/04/15 04:20:27;;;;;;;34.63;25.48;;;;;;;;;;5029694;28;20053;-67
2022/04/15 04:22:54;;;;;;;35.13;25.95;;;;;;;;;;5029482;28;20060;-67
2022/04/15 04:25:21;;;;;;;31.35;23.52;;;;;;;;;;5029392;28;20061;-67
2022/04/15 04:27:48;;;;;;;34.70;25.38;;;;;;;;;;5033143;28;20053;-67
2022/04/15 04:30:16;;;;;;;38.03;27.15;;;;;;;;;;5032798;28;20057;-68
2022/04/15 04:32:49;;;;;;;33.90;23.73;;;;;;;;;;5016012;28;20058;-67
2022/04/15 04:35:17;;;;;;;36.35;25.63;;;;;;;;;;5013406;28;20104;-68
2022/04/15 04:37:44;;;;;;;36.10;25.35;;;;;;;;;;5013687;28;20060;-67
2022/04/15 04:40:12;;;;;;;33.55;25.38;;;;;;;;;;5013198;28;20046;-67
2022/04/15 04:42:40;;;;;;;36.40;26.20;;;;;;;;;;5013588;28;20050;-67
2022/04/15 04:45:10;;;;;;;38.95;26.75;;;;;;;;;;5016540;28;20048;-67
2022/04/15 04:47:39;;;;;;;35.13;26.02;;;;;;;;;;5032691;28;20053;-67
2022/04/15 04:50:09;;;;;;;31.30;24.67;;;;;;;;;;5032591;28;20281;-67
2022/04/15 04:52:36;;;;;;;31.70;23.67;;;;;;;;;;5032759;28;20107;-68
2022/04/15 04:55:04;;;;;;;34.72;24.08;;;;;;;;;;5032803;28;20104;-67
2022/04/15 04:57:31;;;;;;;31.60;23.02;;;;;;;;;;5032462;28;20059;-67
2022/04/15 04:59:58;;;;;;;34.10;25.05;;;;;;;;;;5032848;28;20467;-67
2022/04/15 05:02:25;;;;;;;32.15;23.90;;;;;;;;;;5033175;28;20049;-68
2022/04/15 05:04:52;;;;;;;32.45;24.35;;;;;;;;;;5032282;28;20046;-69
2022/04/15 05:07:20;;;;;;;34.75;25.15;;;;;;;;;;5032846;28;20045;-69
2022/04/15 05:09:47;;;;;;;34.28;24.42;;;;;;;;;;5032483;28;20106;-68
2022/04/15 05:12:15;;;;;;;37.08;26.48;;;;;;;;;;5032433;28;20140;-69
2022/04/15 05:14:42;;;;;;;33.30;24.52;;;;;;;;;;5032050;28;20065;-68
2022/04/15 05:17:09;;;;;;;34.20;25.02;;;;;;;;;;5032404;28;20081;-69
2022/04/15 05:19:36;;;;;;;36.53;26.67;;;;;;;;;;5032549;28;20095;-68
2022/04/15 05:22:03;;;;;;;32.90;24.55;;;;;;;;;;5032251;28;20128;-69
2022/04/15 05:24:31;;;;;;;33.63;24.85;;;;;;;;;;5027737;28;20050;-69
2022/04/15 05:26:59;;;;;;;35.30;26.67;;;;;;;;;;5049567;28;20045;-68
2022/04/15 05:29:26;;;;;;;36.78;26.05;;;;;;;;;;5051955;28;20049;-68
2022/04/15 05:31:53;;;;;;;37.03;24.90;;;;;;;;;;5052347;28;20497;-68
2022/04/15 05:34:20;;;;;;;31.98;23.67;;;;;;;;;;5051994;28;20053;-69
2022/04/15 05:36:47;;;;;;;31.55;23.20;;;;;;;;;;5052109;28;20053;-68
2022/04/15 05:39:14;;;;;;;36.33;25.70;;;;;;;;;;5051244;28;20063;-69
2022/04/15 05:41:43;;;;;;;34.13;25.20;;;;;;;;;;5052186;28;20076;-68
2022/04/15 05:44:12;;;;;;;36.88;25.90;;;;;;;;;;5052035;28;20049;-69
2022/04/15 05:46:42;;;;;;;37.47;26.42;;;;;;;;;;5051371;28;20094;-69
2022/04/15 05:49:13;;;;;;;37.72;27.15;;;;;;;;;;5052503;28;20065;-69
2022/04/15 05:51:41;;;;;;;35.05;25.38;;;;;;;;;;5046837;28;20064;-69
2022/04/15 05:54:08;;;;;;;33.95;24.48;;;;;;;;;;5031666;28;20099;-68
2022/04/15 05:56:36;;;;;;;34.60;25.48;;;;;;;;;;5031699;28;20416;-68
2022/04/15 05:59:04;;;;;;;33.47;25.50;;;;;;;;;;5032207;28;20561;-68
2022/04/15 06:01:31;;;;;;;32.83;24.70;;;;;;;;;;5031627;28;20492;-67
2022/04/15 06:03:58;;;;;;;33.38;25.00;;;;;;;;;;5032296;28;20053;-67
2022/04/15 06:06:26;;;;;;;31.35;24.05;;;;;;;;;;5031200;28;20494;-68
2022/04/15 06:08:53;;;;;;;35.92;23.95;;;;;;;;;;5031372;28;20056;-68
2022/04/15 06:11:21;;;;;;;32.63;23.50;;;;;;;;;;5031158;28;20107;-68
2022/04/15 06:13:48;;;;;;;33.25;24.25;;;;;;;;;;5031650;28;20509;-68
2022/04/15 06:16:19;;;;;;;32.00;23.27;;;;;;;;;;5030975;28;20053;-68
2022/04/15 06:18:46;;;;;;;31.02;22.92;;;;;;;;;;5030670;28;20053;-68
2022/04/15 06:21:13;;;;;;;33.08;23.92;;;;;;;;;;5030661;28;20057;-68
2022/04/15 06:23:40;;;;;;;32.20;23.42;;;;;;;;;;5031109;28;20056;-67
2022/04/15 06:26:07;;;;;;;30.25;22.27;;;;;;;;;;5030842;28;20072;-68
2022/04/15 06:28:34;;;;;;;30.20;22.05;;;;;;;;;;5031189;28;20042;-68
2022/04/15 06:31:01;;;;;;;28.15;21.10;;;;;;;;;;5031117;28;20518;-68
2022/04/15 06:33:30;;;;;;;29.83;21.70;;;;;;;;;;5031107;28;20552;-68
2022/04/15 06:35:57;;;;;;;27.55;20.90;;;;;;;;;;5030881;28;20545;-68
2022/04/15 06:38:24;;;;;;;24.38;18.73;;;;;;;;;;5030840;28;20045;-68
2022/04/15 06:40:50;;;;;;;30.52;20.95;;;;;;;;;;5031026;28;20049;-68
2022/04/15 06:43:17;;;;;;;30.23;21.05;;;;;;;;;;5031002;28;20505;-69
2022/04/15 06:45:44;;;;;;;27.65;20.75;;;;;;;;;;5021275;28;20483;-68
2022/04/15 06:48:11;;;;;;;27.65;20.50;;;;;;;;;;5010977;28;20487;-68
2022/04/15 06:50:40;;;;;;;27.30;20.02;;;;;;;;;;5010688;28;20509;-68
2022/04/15 06:53:07;;;;;;;28.80;20.15;;;;;;;;;;5011157;28;20069;-68
2022/04/15 06:55:34;;;;;;;27.77;21.17;;;;;;;;;;5010507;28;20054;-67
2022/04/15 06:58:01;;;;;;;28.92;21.35;;;;;;;;;;5030515;28;20054;-68
2022/04/15 07:00:28;;;;;;;29.83;19.83;;;;;;;;;;5029772;28;20622;-68
2022/04/15 07:02:55;;;;;;;30.58;21.50;;;;;;;;;;5030280;28;20095;-68
2022/04/15 07:05:23;;;;;;;29.30;20.67;;;;;;;;;;5030147;28;20558;-68
2022/04/15 07:07:52;;;;;;;30.02;20.33;;;;;;;;;;5029794;28;20056;-68
2022/04/15 07:10:19;;;;;;;24.98;19.80;;;;;;;;;;5030231;28;20045;-68
2022/04/15 07:12:46;;;;;;;25.27;19.35;;;;;;;;;;5030431;28;20061;-68
2022/04/15 07:15:13;;;;;;;28.48;20.25;;;;;;;;;;5030443;28;20234;-67
2022/04/15 07:17:40;;;;;;;27.35;19.90;;;;;;;;;;5030460;28;20055;-69
2022/04/15 07:20:08;;;;;;;29.38;21.08;;;;;;;;;;5030548;28;20053;-68
2022/04/15 07:22:35;;;;;;;26.95;19.23;;;;;;;;;;5030712;28;20049;-67
2022/04/15 07:25:03;;;;;;;30.33;21.67;;;;;;;;;;5030043;28;20457;-67
2022/04/15 07:27:31;;;;;;;30.27;22.33;;;;;;;;;;5030173;28;20050;-67
2022/04/15 07:29:58;;;;;;;32.25;22.35;;;;;;;;;;5030468;28;20077;-68
2022/04/15 07:35:46;;;;;;;30.48;22.10;;;;;;;;;;5029400;28;20040;-68
2022/04/15 07:38:13;;;;;;;32.90;22.60;;;;;;;;;;5030372;28;20419;-68
2022/04/15 07:40:41;;;;;;;35.28;23.42;;;;;;;;;;5030154;28;20049;-68
2022/04/15 07:43:09;;;;;;;36.28;26.85;;;;;;;;;;5030017;28;20095;-68
2022/04/15 07:45:36;;;;;;;35.03;24.65;;;;;;;;;;5030053;28;20427;-67
2022/04/15 07:48:03;;;;;;;31.13;22.80;;;;;;;;;;5030735;28;20052;-68
2022/04/15 07:50:31;;;;;;;33.97;24.05;;;;;;;;;;5025682;28;20085;-68
2022/04/15 07:52:59;;;;;;;32.28;23.27;;;;;;;;;;5010508;28;20489;-68
2022/04/15 07:55:26;;;;;;;32.00;22.75;;;;;;;;;;5010489;28;20060;-68
2022/04/15 07:57:55;;;;;;;31.20;23.20;;;;;;;;;;5010666;28;20109;-68
2022/04/15 08:00:22;;;;;;;30.25;22.08;;;;;;;;;;5010874;28;20046;-68
2022/04/15 08:02:49;;;;;;;31.20;22.00;;;;;;;;;;5014400;28;20116;-69
2022/04/15 08:05:16;;;;;;;27.10;20.83;;;;;;;;;;5013809;28;20053;-68
2022/04/15 08:07:43;;;;;;;28.05;21.88;;;;;;;;;;5014671;28;20077;-68
2022/04/15 08:10:10;;;;;;;28.45;22.52;;;;;;;;;;5013117;28;20050;-68
2022/04/15 08:12:38;;;;;;;31.30;22.63;;;;;;;;;;5013397;28;20054;-68
2022/04/15 08:15:07;;;;;;;28.67;22.02;;;;;;;;;;5014609;28;20053;-68
2022/04/15 08:17:34;;;;;;;27.17;21.57;;;;;;;;;;5014036;28;20112;-67
2022/04/15 08:20:01;;;;;;;32.38;22.00;;;;;;;;;;5014376;28;20057;-68
2022/04/15 08:22:28;;;;;;;32.58;23.40;;;;;;;;;;5046278;23;20491;-77
2022/04/15 08:24:55;;;;;;;30.67;21.95;;;;;;;;;;5036271;28;20202;-76
2022/04/15 08:27:21;;;;;;;30.70;22.30;;;;;;;;;;5038160;28;20107;-79
2022/04/15 08:29:49;;;;;;;28.98;20.42;;;;;;;;;;5058218;28;20053;-77
2022/04/15 08:32:18;;;;;;;26.00;18.77;;;;;;;;;;5058948;28;20037;-76
2022/04/15 08:34:44;;;;;;;30.75;21.77;;;;;;;;;;5059642;28;20036;-77
2022/04/15 08:37:17;;;;;;;28.35;19.27;;;;;;;;;;5044468;28;20515;-79
2022/04/15 08:39:45;;;;;;;26.52;18.67;;;;;;;;;;5041678;28;20060;-76
2022/04/15 08:42:11;;;;;;;26.55;20.05;;;;;;;;;;5040305;28;20415;-77
2022/04/15 08:44:38;;;;;;;26.75;18.10;;;;;;;;;;5039250;28;20065;-77
2022/04/15 08:47:07;;;;;;;24.08;18.15;;;;;;;;;;5017664;28;20680;-77
2022/04/15 08:49:36;;;;;;;23.42;17.98;;;;;;;;;;5016674;28;20065;-77
2022/04/15 08:52:03;;;;;;;25.20;18.90;;;;;;;;;;5016739;28;20046;-76
2022/04/15 08:54:31;;;;;;;24.40;18.52;;;;;;;;;;5017369;28;20049;-78
2022/04/15 08:56:58;;;;;;;29.30;20.88;;;;;;;;;;5015847;28;20045;-77
2022/04/15 08:59:25;;;;;;;23.83;19.15;;;;;;;;;;5017181;28;20045;-76
2022/04/15 09:01:51;;;;;;;24.33;18.30;;;;;;;;;;5015578;28;20054;-77
2022/04/15 09:04:19;;;;;;;21.90;17.05;;;;;;;;;;5015975;28;20053;-78
2022/04/15 09:06:55;;;;;;;22.33;16.38;;;;;;;;;;5016112;28;20052;-77
2022/04/15 09:09:29;;;;;;;20.23;15.02;;;;;;;;;;5016913;28;20103;-77
2022/04/15 09:11:57;;;;;;;22.30;16.15;;;;;;;;;;5014450;28;20045;-78
2022/04/15 09:14:24;;;;;;;19.80;14.40;;;;;;;;;;5016277;28;20141;-78
2022/04/15 09:16:51;;;;;;;16.20;10.35;;;;;;;;;;5015825;28;20058;-77
2022/04/15 09:19:20;;;;;;;18.08;12.55;;;;;;;;;;5014694;28;20108;-77
2022/04/15 09:21:52;;;;;;;14.77;10.98;;;;;;;;;;5013333;28;20455;-76
2022/04/15 09:24:27;;;;;;;16.70;11.32;;;;;;;;;;5013552;28;20088;-75
2022/04/15 09:26:53;;;;;;;15.38;9.85;;;;;;;;;;5013038;28;20042;-79
2022/04/15 09:29:21;;;;;;;13.98;10.27;;;;;;;;;;5013342;28;20100;-76
2022/04/15 09:31:48;;;;;;;14.38;10.45;;;;;;;;;;5020844;28;20041;-76
2022/04/15 09:34:15;;;;;;;13.57;9.25;;;;;;;;;;5039037;28;20025;-78
2022/04/15 09:36:44;;;;;;;11.60;8.40;;;;;;;;;;5029469;28;20100;-76
2022/04/15 09:39:14;;;;;;;8.82;5.85;;;;;;;;;;5012793;28;20115;-75
2022/04/15 09:41:42;;;;;;;;;;;;;;;;;;5014445;28;20052;-76
2022/04/15 09:44:12;;;;;;;9.75;6.80;;;;;;;;;;5014386;28;19921;-76
2022/04/15 09:46:42;;;;;;;10.93;7.43;;;;;;;;;;5014308;28;20244;-77
2022/04/15 09:49:10;;;;;;;14.30;8.68;;;;;;;;;;5011735;28;20055;-75
2022/04/15 09:51:42;;;;;;;13.65;9.77;;;;;;;;;;5005790;28;20464;-76
2022/04/15 09:54:22;;;;;;;14.40;10.15;;;;;;;;;;5012026;28;20093;-77
2022/04/15 09:56:50;;;;;;;35.50;26.05;;;;;;;;;;5011771;28;20493;-76
2022/04/15 09:59:18;;;;;;;17.20;12.85;;;;;;;;;;5011847;28;20054;-76
2022/04/15 10:01:46;;;;;;;14.60;10.88;;;;;;;;;;5012274;28;20463;-77
2022/04/15 10:04:14;;;;;;;51.03;43.97;;;;;;;;;;5005640;28;20080;-75
2022/04/15 10:06:42;;;;;;;25.60;22.50;;;;;;;;;;5007822;28;20046;-75
2022/04/15 10:09:14;;;;;;;23.38;18.88;;;;;;;;;;5010425;28;20464;-76
2022/04/15 10:11:43;;;;;;;16.75;11.80;;;;;;;;;;5011577;28;20107;-76
2022/04/15 10:14:11;;;;;;;15.05;10.60;;;;;;;;;;5011886;28;20488;-76
2022/04/15 10:16:39;;;;;;;16.48;10.68;;;;;;;;;;5011554;28;20054;-76
2022/04/15 10:19:07;;;;;;;14.07;10.90;;;;;;;;;;5011539;28;20042;-76
2022/04/15 10:21:37;;;;;;;18.65;12.60;;;;;;;;;;5011510;28;20117;-76
2022/04/15 10:24:07;;;;;;;15.63;11.80;;;;;;;;;;5013048;28;20078;-76
2022/04/15 10:26:36;;;;;;;17.23;11.37;;;;;;;;;;5012891;28;20575;-81
2022/04/15 10:29:05;;;;;;;14.73;10.75;;;;;;;;;;5012451;28;20275;-76
2022/04/15 10:31:40;;;;;;;14.38;10.93;;;;;;;;;;5013371;28;20045;-78
2022/04/15 10:34:14;;;;;;;16.33;12.38;;;;;;;;;;5011816;28;20049;-76
2022/04/15 10:36:46;;;;;;;15.98;11.75;;;;;;;;;;5011292;28;20049;-76
2022/04/15 10:39:15;;;;;;;15.18;11.30;;;;;;;;;;5011391;28;20050;-76
2022/04/15 10:41:57;;;;;;;15.20;11.38;;;;;;;;;;5011669;28;20049;-77
2022/04/15 10:44:37;;;;;;;15.52;11.52;;;;;;;;;;5011132;28;20149;-75
2022/04/15 10:47:27;;;;;;;14.07;10.32;;;;;;;;;;5003814;28;20042;-75
2022/04/15 10:49:56;;;;;;;13.60;11.00;;;;;;;;;;4990990;28;20058;-77
2022/04/15 10:52:26;;;;;;;15.63;12.18;;;;;;;;;;5008401;28;20046;-76
2022/04/15 10:54:54;;;;;;;15.48;10.98;;;;;;;;;;5020542;28;20050;-78
2022/04/15 10:57:23;;;;;;;16.05;11.38;;;;;;;;;;5013595;28;20054;-78
2022/04/15 11:02:43;;;;;;;15.85;11.65;;;;;;;;;;4995561;28;20096;-77
2022/04/15 11:05:13;;;;;;;17.42;12.35;;;;;;;;;;5013150;28;20049;-79
2022/04/15 11:07:59;;;;;;;16.15;11.20;;;;;;;;;;5012863;28;20046;-78
2022/04/15 11:10:59;;;;;;;16.10;11.23;;;;;;;;;;5012976;28;20057;-79
2022/04/15 11:14:02;;;;;;;19.53;14.93;;;;;;;;;;5013671;28;20050;-79
2022/04/15 11:16:42;;;;;;;13.90;9.35;;;;;;;;;;5012629;28;20057;-79
2022/04/15 11:19:12;;;;;;;12.70;8.80;;;;;;;;;;5013254;28;20104;-79
2022/04/15 11:21:40;;;;;;;11.30;8.77;;;;;;;;;;5012155;28;20104;-78
2022/04/15 11:24:09;;;;;;;11.30;9.13;;;;;;;;;;5012852;28;20448;-78
2022/04/15 11:26:37;;;;;;;10.57;8.65;;;;;;;;;;5012450;28;20046;-78
2022/04/15 11:29:09;;;;;;;11.95;8.68;;;;;;;;;;5014268;28;20468;-78
2022/04/15 11:31:37;;;;;;;13.15;8.95;;;;;;;;;;5016166;28;20100;-79
2022/04/15 11:34:06;;;;;;;14.80;11.43;;;;;;;;;;5016802;28;20452;-78
2022/04/15 11:36:33;;;;;;;16.70;10.57;;;;;;;;;;5016322;28;20072;-79
2022/04/15 11:39:02;;;;;;;16.05;10.75;;;;;;;;;;5013383;28;20133;-79
2022/04/15 11:41:29;;;;;;;13.55;8.50;;;;;;;;;;5007113;28;20524;-78
2022/04/15 11:43:59;;;;;;;12.25;9.10;;;;;;;;;;4995131;28;20054;-78
2022/04/15 11:46:38;;;;;;;10.70;8.02;;;;;;;;;;4995142;28;20046;-80
2022/04/15 11:49:11;;;;;;;15.98;10.30;;;;;;;;;;4996275;28;20105;-79
2022/04/15 11:51:38;;;;;;;12.52;9.38;;;;;;;;;;4998311;28;20161;-78
2022/04/15 11:54:05;;;;;;;13.98;10.02;;;;;;;;;;4996070;28;20050;-79
2022/04/15 11:56:36;;;;;;;11.25;8.25;;;;;;;;;;4995794;28;20061;-79
2022/04/15 11:59:04;;;;;;;12.77;9.88;;;;;;;;;;5011463;28;20081;-78
2022/04/15 12:01:33;;;;;;;12.35;8.27;;;;;;;;;;5012078;28;20041;-79
2022/04/15 12:04:00;;;;;;;11.90;7.47;;;;;;;;;;5012334;28;20050;-79
2022/04/15 12:06:27;;;;;;;11.68;7.53;;;;;;;;;;5015890;28;20109;-79
2022/04/15 12:08:56;;;;;;;10.32;7.70;;;;;;;;;;5015084;28;20050;-80
2022/04/15 12:11:25;;;;;;;12.05;8.30;;;;;;;;;;5015804;28;20081;-80
2022/04/15 12:13:59;;;;;;;11.88;9.45;;;;;;;;;;5013435;28;20050;-78
2022/04/15 12:16:33;;;;;;;11.35;8.60;;;;;;;;;;5012708;28;20108;-78
2022/04/15 12:19:03;;;;;;;10.52;8.18;;;;;;;;;;5014365;28;20174;-78
2022/04/15 12:21:31;;;;;;;11.85;8.32;;;;;;;;;;5013118;28;20129;-77
2022/04/15 12:24:06;;;;;;;11.48;8.38;;;;;;;;;;4996971;28;20046;-79
2022/04/15 12:26:49;;;;;;;16.25;11.82;;;;;;;;;;5016426;28;20044;-78
2022/04/15 12:32:21;;;;;;;12.85;8.70;;;;;;;;;;4989960;28;20109;-79
2022/04/15 12:34:51;;;;;;;10.82;8.38;;;;;;;;;;5007244;28;20488;-78
2022/04/15 12:37:35;;;;;;;11.10;8.77;;;;;;;;;;4992248;28;20505;-77
2022/04/15 12:40:02;;;;;;;11.35;7.88;;;;;;;;;;4994015;28;20047;-79
2022/04/15 12:42:29;;;;;;;10.05;7.90;;;;;;;;;;4994098;28;20054;-78
2022/04/15 12:44:56;;;;;;;11.85;8.93;;;;;;;;;;4995548;28;20111;-79
2022/04/15 12:47:26;;;;;;;11.93;8.25;;;;;;;;;;5015272;28;20057;-78
2022/04/15 12:49:54;;;;;;;10.75;8.00;;;;;;;;;;5017051;28;20104;-78
2022/04/15 12:52:22;;;;;;;13.00;9.07;;;;;;;;;;5016423;28;20084;-78
2022/04/15 12:54:57;;;;;;;10.73;7.95;;;;;;;;;;5015180;28;20132;-78
2022/04/15 12:57:28;;;;;;;11.75;8.95;;;;;;;;;;5015901;28;20493;-78
2022/04/15 12:59:55;;;;;;;12.40;8.60;;;;;;;;;;5016499;28;20053;-79
2022/04/15 13:02:23;;;;;;;10.40;6.88;;;;;;;;;;5016779;28;20448;-78
2022/04/15 13:04:50;;;;;;;9.68;6.10;;;;;;;;;;5015914;28;20208;-78
2022/04/15 13:07:18;;;;;;;10.02;7.35;;;;;;;;;;5016448;28;20424;-79
2022/04/15 13:09:45;;;;;;;9.48;7.45;;;;;;;;;;5017197;28;20046;-80
2022/04/15 13:12:13;;;;;;;10.65;6.93;;;;;;;;;;5013272;28;20055;-81
2022/04/15 13:14:40;;;;;;;11.85;7.95;;;;;;;;;;4995667;28;20047;-78
2022/04/15 13:17:07;;;;;;;14.45;9.02;;;;;;;;;;4997197;28;20050;-80
2022/04/15 13:19:35;;;;;;;19.63;11.75;;;;;;;;;;4996604;28;20050;-79
2022/04/15 13:22:02;;;;;;;18.10;10.80;;;;;;;;;;4996576;28;20042;-78
2022/04/15 13:24:30;;;;;;;19.77;12.07;;;;;;;;;;5000583;28;20112;-78
2022/04/15 13:26:57;;;;;;;17.50;11.38;;;;;;;;;;4996630;28;20059;-79
2022/04/15 13:29:23;;;;;;;16.15;8.98;;;;;;;;;;4997056;28;20069;-78
2022/04/15 13:31:51;;;;;;;18.58;10.88;;;;;;;;;;4998765;28;20066;-81
2022/04/15 13:34:18;;;;;;;17.48;10.82;;;;;;;;;;4999313;28;20050;-77
2022/04/15 13:36:45;;;;;;;12.57;8.70;;;;;;;;;;4997223;28;20104;-78
2022/04/15 13:39:11;;;;;;;18.83;11.65;;;;;;;;;;4997634;28;20097;-80
2022/04/15 13:41:41;;;;;;;15.93;9.85;;;;;;;;;;4997470;28;20043;-78
2022/04/15 13:44:08;;;;;;;14.27;10.30;;;;;;;;;;4997417;28;20066;-79
2022/04/15 13:46:35;;;;;;;11.32;8.70;;;;;;;;;;5012498;28;20592;-78
2022/04/15 13:49:02;;;;;;;11.27;7.53;;;;;;;;;;5016234;28;20053;-80
2022/04/15 13:51:30;;;;;;;10.55;7.70;;;;;;;;;;5016928;28;20057;-78
2022/04/15 13:56:42;;;;;;;12.38;8.88;;;;;;;;;;5009456;28;20061;-79
2022/04/15 13:59:11;;;;;;;12.32;8.40;;;;;;;;;;5017804;28;20080;-79
2022/04/15 14:01:40;;;;;;;11.93;8.25;;;;;;;;;;5019042;28;20061;-80
2022/04/15 14:04:09;;;;;;;15.07;10.45;;;;;;;;;;5018180;28;20074;-79
2022/04/15 14:06:37;;;;;;;10.88;8.30;;;;;;;;;;5017986;28;20120;-79
2022/04/15 14:09:05;;;;;;;12.45;7.22;;;;;;;;;;5018316;28;20045;-79
2022/04/15 14:11:33;;;;;;;11.80;8.80;;;;;;;;;;5017698;28;20053;-82
2022/04/15 14:14:16;;;;;;;10.95;9.18;;;;;;;;;;5017847;28;20497;-78
2022/04/15 14:16:46;;;;;;;11.15;8.10;;;;;;;;;;5015463;28;20050;-78
2022/04/15 14:19:14;;;;;;;11.73;8.48;;;;;;;;;;5016909;28;20132;-79
2022/04/15 14:21:41;;;;;;;12.15;8.40;;;;;;;;;;5045994;23;20077;-68
2022/04/15 14:24:08;;;;;;;10.00;8.45;;;;;;;;;;5013483;28;20053;-68
2022/04/15 14:26:36;;;;;;;10.05;7.60;;;;;;;;;;5012997;28;20384;-67
2022/04/15 14:29:04;;;;;;;12.23;8.85;;;;;;;;;;5013045;28;20053;-67
2022/04/15 14:31:32;;;;;;;13.93;9.45;;;;;;;;;;5013446;28;20094;-67
2022/04/15 14:33:59;;;;;;;11.30;8.88;;;;;;;;;;5013742;28;20054;-67
2022/04/15 14:36:28;;;;;;;11.07;9.68;;;;;;;;;;5013287;28;20050;-67
2022/04/15 14:38:56;;;;;;;10.40;8.18;;;;;;;;;;5013653;28;20046;-67
2022/04/15 14:41:23;;;;;;;12.27;9.07;;;;;;;;;;5013317;28;20050;-68